Time;durP1;ratioP1;P1;durP2;ratioP2;P2;SDS_P1;SDS_P2;PMS_P1;PMS_P2;Temp;Humidity;BMP_temperature;BMP_pressure;BME280_temperature;BME280_humidity;BME280_pressure;Samples;Min_cycle;Max_cycle;Signal;HPM_P1;HPM_P2
2022/02/02 00:01:25;;;;;;;19.13;9.82;;;1.80;99.90;;;;;;4997746;28;20207;-88
2022/02/02 00:03:53;;;;;;;13.80;9.10;;;1.80;99.90;;;;;;5013794;28;20207;-88
2022/02/02 00:06:26;;;;;;;13.75;8.68;;;1.90;99.90;;;;;;4997517;28;20278;-88
2022/02/02 00:09:00;;;;;;;15.40;9.55;;;1.90;99.90;;;;;;4997163;28;20685;-88
2022/02/02 00:14:00;;;;;;;17.80;8.55;;;1.90;99.90;;;;;;4998799;28;20181;-88
2022/02/02 00:19:08;;;;;;;16.50;8.93;;;2.00;99.90;;;;;;4998765;28;20188;-88
2022/02/02 00:24:08;;;;;;;13.38;8.82;;;2.10;99.90;;;;;;4998393;28;20626;-88
2022/02/02 00:26:39;;;;;;;12.90;8.15;;;2.20;99.90;;;;;;4997073;28;20207;-88
2022/02/02 00:29:11;;;;;;;13.15;8.10;;;2.20;99.90;;;;;;4998894;28;20195;-88
2022/02/02 00:31:42;;;;;;;13.52;8.23;;;2.20;99.90;;;;;;5002275;28;20211;-88
2022/02/02 00:34:13;;;;;;;11.50;7.95;;;2.30;99.90;;;;;;5002240;28;20188;-88
2022/02/02 00:36:54;;;;;;;12.55;8.02;;;2.30;99.90;;;;;;5003936;28;20597;-89
2022/02/02 00:39:20;;;;;;;12.35;6.90;;;2.30;99.90;;;;;;5006469;28;20184;-88
2022/02/02 00:41:46;;;;;;;14.87;8.20;;;2.40;99.90;;;;;;4999467;28;20203;-89
2022/02/02 00:44:14;;;;;;;13.53;7.40;;;2.40;99.90;;;;;;4997228;28;20207;-88
2022/02/02 00:46:40;;;;;;;11.85;7.68;;;2.50;99.90;;;;;;4998002;28;20172;-88
2022/02/02 00:49:06;;;;;;;13.50;8.30;;;2.50;99.90;;;;;;4998668;28;20657;-89
2022/02/02 00:51:44;;;;;;;16.92;8.40;;;2.50;99.90;;;;;;4997483;28;20258;-88
2022/02/02 00:54:16;;;;;;;15.73;8.38;;;2.60;99.90;;;;;;5008268;28;20203;-88
2022/02/02 00:56:42;;;;;;;10.85;6.88;;;2.60;99.90;;;;;;5004683;28;20204;-88
2022/02/02 00:59:08;;;;;;;12.13;7.63;;;2.60;99.90;;;;;;4997375;28;20688;-88
2022/02/02 01:01:34;;;;;;;14.55;8.35;;;2.60;99.90;;;;;;5006429;28;20511;-88
2022/02/02 01:04:00;;;;;;;13.73;7.60;;;2.60;99.90;;;;;;4998519;28;20727;-88
2022/02/02 01:06:29;;;;;;;11.40;7.32;;;2.60;99.90;;;;;;5004581;28;20629;-88
2022/02/02 01:19:41;;;;;;;16.88;7.68;;;2.70;99.90;;;;;;4997716;28;20215;-88
2022/02/02 01:27:50;;;;;;;14.57;7.05;;;2.70;99.90;;;;;;4995243;28;20635;-89
2022/02/02 01:30:16;;;;;;;11.60;7.57;;;2.80;99.90;;;;;;4997045;28;20219;-88
2022/02/02 01:32:42;;;;;;;14.75;7.40;;;2.80;99.90;;;;;;4995762;28;20310;-88
2022/02/02 01:35:14;;;;;;;9.40;5.93;;;2.80;99.90;;;;;;4995416;28;20708;-89
2022/02/02 01:37:41;;;;;;;12.30;7.00;;;2.80;99.90;;;;;;4995920;28;20187;-88
2022/02/02 01:40:15;;;;;;;9.60;6.78;;;2.80;99.90;;;;;;4995948;28;20279;-88
2022/02/02 01:42:49;;;;;;;10.48;6.78;;;2.80;99.90;;;;;;4995841;28;20842;-89
2022/02/02 01:45:22;;;;;;;12.93;6.95;;;2.90;99.90;;;;;;4995701;28;20216;-88
2022/02/02 01:48:02;;;;;;;14.82;7.88;;;2.90;99.90;;;;;;4995692;28;20543;-88
2022/02/02 01:50:42;;;;;;;14.50;6.63;;;2.90;99.90;;;;;;5002917;28;20204;-88
2022/02/02 01:53:29;;;;;;;14.70;7.45;;;2.90;99.90;;;;;;5012470;28;20330;-89
2022/02/02 01:55:56;;;;;;;13.43;6.97;;;2.90;99.90;;;;;;5004395;28;20208;-89
2022/02/02 02:00:52;;;;;;;11.20;6.60;;;3.00;99.90;;;;;;5012066;28;20200;-89
2022/02/02 02:03:18;;;;;;;14.15;7.72;;;3.00;99.90;;;;;;4996703;28;20248;-88
2022/02/02 02:05:44;;;;;;;9.10;6.63;;;3.10;99.90;;;;;;5002157;28;20246;-88
2022/02/02 02:08:09;;;;;;;14.30;8.53;;;3.10;99.90;;;;;;4996016;28;20425;-88
2022/02/02 02:10:35;;;;;;;14.77;7.97;;;3.10;99.90;;;;;;4999498;28;20910;-88
2022/02/02 02:13:12;;;;;;;19.40;8.03;;;3.10;99.90;;;;;;4995361;28;20254;-88
2022/02/02 02:15:40;;;;;;;15.45;7.78;;;3.10;99.90;;;;;;4994882;28;20435;-88
2022/02/02 02:18:06;;;;;;;12.95;6.85;;;3.10;99.90;;;;;;4994869;28;20648;-88
2022/02/02 02:20:32;;;;;;;10.70;7.25;;;3.20;99.90;;;;;;4995164;28;20235;-88
2022/02/02 02:22:58;;;;;;;10.55;7.03;;;3.20;99.90;;;;;;4995089;28;20271;-88
2022/02/02 02:25:32;;;;;;;12.23;7.50;;;3.20;99.90;;;;;;4994803;28;20215;-88
2022/02/02 02:28:14;;;;;;;11.27;7.43;;;3.20;99.90;;;;;;4994885;28;20910;-88
2022/02/02 02:30:47;;;;;;;13.23;7.43;;;3.20;99.90;;;;;;4994489;28;20211;-88
2022/02/02 02:38:56;;;;;;;13.63;7.55;;;3.10;99.90;;;;;;4996340;28;20202;-88
2022/02/02 02:58:19;;;;;;;18.15;7.93;;;2.70;99.90;;;;;;4995749;28;20235;-88
2022/02/02 03:29:46;;;;;;;12.70;7.97;;;2.50;99.90;;;;;;4996072;28;20202;-88
2022/02/02 03:30:48;;;;;;;16.35;8.30;;;2.40;99.90;;;;;;5001519;28;20215;-89
2022/02/02 03:57:50;;;;;;;14.87;8.20;;;2.30;99.90;;;;;;4995083;28;20203;-88
2022/02/02 04:03:05;;;;;;;18.30;10.00;;;2.40;99.90;;;;;;4995119;28;20168;-88
2022/02/02 04:08:18;;;;;;;16.40;8.27;;;2.30;99.90;;;;;;4995009;28;20174;-88
2022/02/02 04:10:44;;;;;;;12.30;8.15;;;2.30;99.90;;;;;;4993506;28;20219;-88
2022/02/02 04:54:20;;;;;;;17.23;8.90;;;2.40;99.90;;;;;;4997887;28;20222;-88
2022/02/02 05:09:47;;;;;;;18.50;9.23;;;2.30;99.90;;;;;;4997445;28;20223;-88
2022/02/02 05:17:23;;;;;;;16.55;10.77;;;2.40;99.90;;;;;;5006624;28;20163;-88
2022/02/02 05:44:15;;;;;;;231.93;76.13;;;2.40;99.90;;;;;;4997114;28;20664;-87
2022/02/02 05:51:54;;;;;;;75.73;45.00;;;2.40;99.90;;;;;;4995749;28;20208;-86
2022/02/02 05:54:20;;;;;;;33.38;17.70;;;2.40;99.90;;;;;;4993871;28;20192;-87
2022/02/02 05:56:53;;;;;;;16.50;9.77;;;2.40;99.90;;;;;;4996095;28;20538;-87
2022/02/02 05:59:21;;;;;;;17.98;12.25;;;2.40;99.90;;;;;;4994225;28;20445;-87
2022/02/02 06:01:53;;;;;;;35.08;20.83;;;2.40;99.90;;;;;;4985165;28;20177;-88
2022/02/02 06:04:28;;;;;;;19.63;12.35;;;2.50;99.90;;;;;;4994152;28;20196;-86
2022/02/02 06:06:55;;;;;;;15.70;10.25;;;2.50;99.90;;;;;;4995449;28;20183;-87
2022/02/02 06:09:29;;;;;;;17.30;9.25;;;2.50;99.90;;;;;;4994259;28;20247;-88
2022/02/02 06:11:56;;;;;;;17.50;8.57;;;2.50;99.90;;;;;;4993608;28;20234;-87
2022/02/02 06:14:27;;;;;;;16.95;10.23;;;2.50;99.90;;;;;;4994137;28;20198;-87
2022/02/02 06:16:56;;;;;;;19.83;12.70;;;2.50;99.90;;;;;;4993520;28;20176;-87
2022/02/02 06:19:25;;;;;;;15.23;9.27;;;2.60;99.90;;;;;;4994567;28;20191;-87
2022/02/02 06:22:16;;;;;;;18.85;12.70;;;2.60;99.90;;;;;;4992803;28;20206;-87
2022/02/02 06:25:10;;;;;;;31.40;13.73;;;2.50;99.90;;;;;;4993833;28;20219;-88
2022/02/02 06:27:37;;;;;;;18.27;10.10;;;2.50;99.90;;;;;;4971617;28;20189;-87
2022/02/02 06:30:09;;;;;;;15.30;9.75;;;2.50;99.90;;;;;;5002258;28;20211;-88
2022/02/02 06:32:41;;;;;;;15.65;9.38;;;2.60;99.90;;;;;;4991757;28;20220;-86
2022/02/02 06:35:06;;;;;;;19.75;10.75;;;2.60;99.90;;;;;;4985884;28;20212;-87
2022/02/02 06:37:32;;;;;;;15.07;9.40;;;2.60;99.90;;;;;;4990492;28;20192;-88
2022/02/02 06:39:58;;;;;;;15.33;8.53;;;2.60;99.90;;;;;;4994311;28;20457;-88
2022/02/02 06:42:24;;;;;;;12.83;8.43;;;2.60;99.90;;;;;;4994736;28;20442;-88
2022/02/02 06:44:51;;;;;;;19.77;11.43;;;2.60;99.90;;;;;;4990305;28;20202;-88
2022/02/02 06:47:17;;;;;;;18.48;10.43;;;2.60;99.90;;;;;;4986142;28;20190;-86
2022/02/02 06:49:46;;;;;;;22.27;14.75;;;2.60;99.90;;;;;;4983281;28;20607;-88
2022/02/02 06:52:22;;;;;;;16.58;12.50;;;2.60;99.90;;;;;;4993426;28;20307;-88
2022/02/02 06:54:58;;;;;;;19.25;10.60;;;2.60;99.90;;;;;;4993372;28;20234;-86
2022/02/02 06:57:41;;;;;;;16.67;11.82;;;2.50;99.90;;;;;;5006236;28;20290;-88
2022/02/02 07:00:19;;;;;;;17.58;12.20;;;2.50;99.90;;;;;;4993774;28;20247;-87
2022/02/02 07:03:05;;;;;;;18.10;11.35;;;2.60;99.90;;;;;;5012000;28;20233;-87
2022/02/02 07:05:42;;;;;;;21.70;10.93;;;2.50;99.90;;;;;;4984798;28;20630;-88
2022/02/02 07:08:27;;;;;;;23.83;16.50;;;2.50;99.90;;;;;;4987694;28;20186;-87
2022/02/02 07:16:34;;;;;;;21.33;11.38;;;2.60;99.90;;;;;;4991057;28;20215;-89
2022/02/02 07:19:11;;;;;;;21.33;12.00;;;2.60;99.90;;;;;;4987465;28;20188;-89
2022/02/02 07:34:47;;;;;;;48.58;23.77;;;2.60;99.90;;;;;;4993767;28;20183;-87
2022/02/02 07:37:18;;;;;;;69.80;35.60;;;2.60;99.90;;;;;;4992764;28;20203;-88
2022/02/02 07:39:45;;;;;;;40.55;22.08;;;2.60;99.90;;;;;;4985962;28;20227;-87
2022/02/02 07:42:12;;;;;;;33.40;20.95;;;2.60;99.90;;;;;;4993443;28;20184;-89
2022/02/02 07:44:40;;;;;;;28.38;16.05;;;2.60;99.90;;;;;;5002689;28;20218;-88
2022/02/02 07:47:10;;;;;;;72.38;40.78;;;2.70;99.90;;;;;;4997721;28;20219;-89
2022/02/02 07:49:41;;;;;;;21.27;16.55;;;2.80;99.90;;;;;;5009699;28;20219;-90
2022/02/02 07:52:12;;;;;;;20.70;11.50;;;2.80;99.90;;;;;;4993503;28;20776;-89
2022/02/02 07:54:41;;;;;;;22.27;12.02;;;3.00;99.90;;;;;;4992059;28;20311;-88
2022/02/02 07:57:12;;;;;;;16.70;12.25;;;3.30;99.90;;;;;;4992238;28;20176;-89
2022/02/02 07:59:57;;;;;;;16.17;10.40;;;3.70;99.90;;;;;;4989242;28;20207;-87
2022/02/02 08:02:36;;;;;;;14.55;10.38;;;4.40;99.90;;;;;;5010174;28;20188;-90
2022/02/02 08:05:03;;;;;;;13.43;8.77;;;5.30;99.90;;;;;;4985307;28;20254;-90
2022/02/02 08:07:36;;;;;;;11.27;9.10;;;6.20;99.90;;;;;;4992038;28;20183;-89
2022/02/02 08:10:09;;;;;;;14.57;7.80;;;7.10;99.90;;;;;;4993809;28;20266;-90
2022/02/02 08:12:48;;;;;;;16.95;12.45;;;8.10;99.90;;;;;;4996036;28;20685;-90
2022/02/02 08:15:17;;;;;;;16.35;12.20;;;8.90;99.90;;;;;;4996221;28;20211;-88
2022/02/02 08:17:45;;;;;;;9.95;8.20;;;9.70;99.90;;;;;;5002633;28;20188;-88
2022/02/02 08:20:11;;;;;;;11.68;8.90;;;10.40;99.90;;;;;;4995281;28;20265;-90
2022/02/02 08:22:39;;;;;;;10.93;7.28;;;11.00;99.90;;;;;;4995423;28;20184;-90
2022/02/02 08:25:11;;;;;;;11.30;8.32;;;11.10;99.90;;;;;;4994463;28;20203;-89
2022/02/02 08:27:41;;;;;;;9.50;7.18;;;10.70;99.90;;;;;;4992841;28;20605;-88
2022/02/02 08:30:12;;;;;;;9.32;6.15;;;10.10;99.90;;;;;;4989264;28;20282;-89
2022/02/02 08:32:54;;;;;;;14.98;7.18;;;9.40;99.90;;;;;;4988172;28;20222;-88
2022/02/02 08:35:21;;;;;;;10.20;5.88;;;8.90;99.90;;;;;;4992968;28;20207;-89
2022/02/02 08:37:53;;;;;;;9.18;6.65;;;8.40;99.90;;;;;;4996645;28;20205;-89
2022/02/02 08:40:36;;;;;;;9.93;7.30;;;8.00;99.90;;;;;;4994015;28;20219;-89
2022/02/02 08:43:09;;;;;;;10.38;7.30;;;7.60;99.90;;;;;;4994478;28;20192;-88
2022/02/02 08:45:37;;;;;;;12.80;7.43;;;7.30;99.90;;;;;;4993775;28;20229;-88
2022/02/02 08:48:07;;;;;;;9.75;7.10;;;7.00;99.90;;;;;;4997613;28;20186;-87
2022/02/02 08:53:56;;;;;;;12.48;7.38;;;6.80;99.90;;;;;;4995604;28;20212;-88
2022/02/02 08:58:50;;;;;;;9.18;5.65;;;6.60;99.90;;;;;;4997371;28;20545;-89
2022/02/02 09:01:23;;;;;;;15.60;6.28;;;6.50;99.90;;;;;;4987519;28;20708;-90
2022/02/02 09:06:34;;;;;;;10.27;6.20;;;7.50;99.90;;;;;;4991456;28;20258;-89
2022/02/02 09:09:10;;;;;;;9.00;5.70;;;8.30;99.90;;;;;;4999986;28;20230;-88
2022/02/02 09:20:06;;;;;;;8.13;5.78;;;8.70;99.90;;;;;;4989775;28;20261;-88
2022/02/02 09:23:25;;;;;;;8.82;5.85;;;8.70;99.90;;;;;;4991937;28;20737;-87
2022/02/02 09:36:17;;;;;;;11.98;6.40;;;10.70;99.90;;;;;;4991571;28;20328;-88
2022/02/02 09:38:43;;;;;;;7.65;5.25;;;10.70;99.90;;;;;;4991581;28;20192;-88
2022/02/02 09:41:26;;;;;;;9.10;5.80;;;10.60;99.90;;;;;;4988717;28;20212;-88
2022/02/02 09:43:56;;;;;;;6.90;5.90;;;10.40;99.90;;;;;;4987815;28;20188;-88
2022/02/02 09:46:27;;;;;;;7.00;5.93;;;10.00;99.90;;;;;;4999069;28;20212;-89
2022/02/02 09:48:58;;;;;;;9.10;5.60;;;9.70;99.90;;;;;;4989729;28;20593;-89
2022/02/02 09:51:33;;;;;;;9.70;5.68;;;9.70;99.90;;;;;;4981321;28;20208;-89
2022/02/02 09:54:05;;;;;;;9.40;6.85;;;10.00;99.90;;;;;;4992303;28;20222;-89
2022/02/02 10:02:06;;;;;;;8.55;5.65;;;11.80;99.90;;;;;;4999935;28;20187;-87
2022/02/02 10:15:31;;;;;;;9.95;6.22;;;11.70;99.90;;;;;;4995527;28;20226;-89
2022/02/02 10:18:05;;;;;;;10.05;6.60;;;11.70;99.90;;;;;;4994657;28;20544;-89
2022/02/02 10:20:32;;;;;;;12.32;8.00;;;11.90;99.90;;;;;;4993578;28;20195;-88
2022/02/02 10:23:00;;;;;;;9.70;6.18;;;12.10;99.90;;;;;;4982505;28;20239;-87
2022/02/02 10:25:43;;;;;;;11.68;7.45;;;12.20;99.90;;;;;;4995526;28;20235;-87
2022/02/02 10:28:30;;;;;;;9.30;6.10;;;12.10;99.90;;;;;;5006665;28;20187;-88
2022/02/02 10:31:07;;;;;;;6.10;5.30;;;12.10;99.90;;;;;;4992405;28;20294;-87
2022/02/02 10:33:34;;;;;;;8.35;5.10;;;12.00;99.90;;;;;;4993731;28;20227;-87
2022/02/02 10:36:16;;;;;;;5.40;4.30;;;11.90;99.90;;;;;;4990679;28;20629;-87
2022/02/02 10:38:50;;;;;;;6.70;4.95;;;11.80;99.90;;;;;;4984733;28;20203;-89
2022/02/02 10:41:31;;;;;;;6.85;4.82;;;11.70;99.90;;;;;;4984069;28;20196;-87
2022/02/02 10:44:02;;;;;;;9.50;5.40;;;11.70;99.90;;;;;;4994010;28;20189;-89
2022/02/02 10:46:51;;;;;;;6.15;5.22;;;11.60;99.90;;;;;;4989116;28;20196;-87
2022/02/02 10:52:03;;;;;;;6.30;5.50;;;11.70;99.90;;;;;;4988880;28;20207;-89
2022/02/02 10:54:38;;;;;;;8.50;5.82;;;11.70;99.90;;;;;;4986111;28;20559;-88
2022/02/02 10:57:34;;;;;;;7.75;5.20;;;11.70;99.90;;;;;;4984254;28;20183;-87
2022/02/02 11:00:14;;;;;;;8.30;5.18;;;11.60;99.90;;;;;;4992260;28;20623;-87
2022/02/02 11:08:09;;;;;;;4.25;2.30;;;11.40;99.90;;;;;;4993438;28;20195;-88
2022/02/02 11:10:34;;;;;;;3.72;1.58;;;11.50;99.90;;;;;;4989480;28;20203;-88
2022/02/02 11:13:02;;;;;;;2.67;1.97;;;11.50;99.90;;;;;;4993791;28;20212;-89
2022/02/02 11:15:38;;;;;;;7.10;3.47;;;11.50;99.90;;;;;;4975117;28;20200;-88
2022/02/02 11:18:08;;;;;;;5.00;2.88;;;11.50;99.90;;;;;;4983884;28;20183;-89
2022/02/02 11:20:37;;;;;;;3.03;1.67;;;11.50;99.90;;;;;;4992343;28;20200;-87
2022/02/02 11:23:05;;;;;;;4.53;2.10;;;11.40;99.90;;;;;;4989140;28;20183;-88
2022/02/02 11:25:35;;;;;;;3.28;1.88;;;11.30;99.90;;;;;;4995292;28;20239;-87
2022/02/02 11:28:04;;;;;;;5.93;3.20;;;11.10;99.90;;;;;;4991853;28;20184;-89
2022/02/02 11:30:29;;;;;;;2.45;1.80;;;11.00;99.90;;;;;;5000799;28;20252;-87
2022/02/02 11:32:55;;;;;;;1.53;1.43;;;10.80;99.90;;;;;;4990733;28;20298;-87
2022/02/02 11:35:24;;;;;;;1.60;1.50;;;10.60;99.90;;;;;;4991339;28;20208;-88
2022/02/02 11:37:58;;;;;;;3.05;1.70;;;10.50;99.90;;;;;;4991262;28;20622;-88
2022/02/02 11:40:24;;;;;;;1.67;1.52;;;10.40;99.90;;;;;;4989108;28;20269;-88
2022/02/02 11:43:12;;;;;;;2.80;1.73;;;10.40;99.90;;;;;;4991393;28;20447;-88
2022/02/02 11:45:45;;;;;;;2.60;1.80;;;10.40;99.90;;;;;;4985160;28;20980;-88
2022/02/02 11:48:21;;;;;;;3.08;1.60;;;10.30;99.90;;;;;;4993152;28;20188;-86
2022/02/02 11:50:50;;;;;;;5.00;1.98;;;10.30;99.90;;;;;;4989270;28;20214;-87
2022/02/02 11:53:50;;;;;;;3.20;2.00;;;10.20;99.90;;;;;;4992985;28;20635;-87
2022/02/02 11:56:18;;;;;;;3.67;1.95;;;10.20;99.90;;;;;;4991307;28;20211;-89
2022/02/02 11:58:44;;;;;;;2.75;1.25;;;10.10;99.90;;;;;;4991094;28;20200;-89
2022/02/02 12:01:16;;;;;;;1.85;1.40;;;10.10;99.90;;;;;;4999874;28;20184;-88
2022/02/02 12:04:00;;;;;;;3.08;1.98;;;10.00;99.90;;;;;;4996428;28;20194;-87
2022/02/02 13:00:21;;;;;;;5.38;1.85;;;9.90;99.90;;;;;;4989165;28;20309;-87
2022/02/02 13:02:48;;;;;;;5.45;1.95;;;9.90;99.90;;;;;;4987866;28;20187;-87
2022/02/02 13:05:14;;;;;;;3.72;2.00;;;9.90;99.90;;;;;;4989714;28;20207;-88
2022/02/02 13:07:41;;;;;;;2.45;1.60;;;9.90;99.90;;;;;;4989135;28;20191;-87
2022/02/02 13:10:20;;;;;;;5.00;1.80;;;10.00;99.90;;;;;;4992007;28;20612;-88
2022/02/02 13:12:54;;;;;;;2.95;1.90;;;9.90;99.90;;;;;;4997984;28;20223;-87
2022/02/02 13:15:52;;;;;;;2.75;2.25;;;9.90;99.90;;;;;;4991347;28;20630;-87
2022/02/02 13:21:13;;;;;;;7.45;2.33;;;9.90;99.90;;;;;;4991677;28;20239;-87
2022/02/02 13:29:26;;;;;;;7.90;3.30;;;9.90;99.90;;;;;;4991418;28;20689;-87
2022/02/02 13:32:11;;;;;;;6.07;2.30;;;10.00;99.90;;;;;;4992765;28;20195;-87
2022/02/02 13:37:46;;;;;;;7.20;4.22;;;10.00;99.90;;;;;;4998834;28;20167;-87
2022/02/02 13:46:28;;;;;;;9.65;5.63;;;10.10;99.90;;;;;;4993006;28;20215;-89
2022/02/02 13:49:31;;;;;;;6.85;3.22;;;10.10;99.90;;;;;;4995137;28;20784;-88
2022/02/02 14:02:16;;;;;;;5.20;2.30;;;9.90;99.90;;;;;;4999928;28;20505;-87
2022/02/02 14:10:13;;;;;;;3.25;1.80;;;9.60;99.90;;;;;;4991913;28;20244;-87
2022/02/02 14:31:36;;;;;;;19.90;9.43;;;10.20;99.90;;;;;;4992603;28;20707;-88
2022/02/02 14:34:03;;;;;;;6.80;3.67;;;10.20;99.90;;;;;;4990148;28;20247;-89
2022/02/02 14:36:35;;;;;;;12.38;5.60;;;10.10;99.90;;;;;;4990016;28;20215;-89
2022/02/02 14:39:25;;;;;;;11.65;7.10;;;10.00;99.90;;;;;;4999757;28;20177;-89
2022/02/02 14:42:05;;;;;;;7.53;5.13;;;9.90;99.90;;;;;;4988345;28;20188;-87
2022/02/02 14:44:36;;;;;;;5.57;2.10;;;9.80;99.90;;;;;;4988104;28;20279;-87
2022/02/02 14:47:14;;;;;;;5.32;2.35;;;9.70;99.90;;;;;;4989545;28;20726;-87
2022/02/02 14:52:50;;;;;;;4.35;1.90;;;9.50;99.90;;;;;;4943747;28;20230;-87
2022/02/02 15:27:20;;;;;;;5.43;2.15;;;9.20;99.90;;;;;;4985703;28;20191;-89
2022/02/02 15:29:59;;;;;;;10.55;5.68;;;9.00;99.90;;;;;;4989285;28;20216;-88
2022/02/02 15:32:27;;;;;;;5.75;3.17;;;8.90;99.90;;;;;;4988698;28;20242;-89
2022/02/02 15:34:56;;;;;;;10.60;6.10;;;8.80;99.90;;;;;;4989755;28;20358;-89
2022/02/02 15:58:53;;;;;;;5.65;3.13;;;7.90;99.90;;;;;;4970474;28;20192;-88
2022/02/02 16:03:52;;;;;;;8.77;5.57;;;7.80;99.90;;;;;;4986196;28;20326;-88
2022/02/02 16:06:21;;;;;;;7.53;4.95;;;7.70;99.90;;;;;;4984897;28;20210;-88
2022/02/02 16:08:56;;;;;;;5.03;2.92;;;7.70;99.90;;;;;;4995971;28;20227;-89
2022/02/02 16:11:28;;;;;;;10.43;3.50;;;7.60;99.90;;;;;;4997966;28;20568;-89
2022/02/02 16:13:59;;;;;;;4.05;3.55;;;7.60;99.90;;;;;;5006548;28;20223;-89
2022/02/02 16:19:17;;;;;;;9.68;5.50;;;7.50;99.90;;;;;;4991064;28;20185;-87
2022/02/02 16:24:49;;;;;;;7.35;3.00;;;7.40;99.90;;;;;;4991023;28;20288;-87
2022/02/02 16:38:09;;;;;;;4.80;2.45;;;7.40;99.90;;;;;;4994382;28;20181;-87
2022/02/02 16:40:37;;;;;;;4.20;2.20;;;7.40;99.90;;;;;;4993192;28;20704;-87
2022/02/02 16:43:15;;;;;;;2.30;2.10;;;7.40;99.90;;;;;;4993568;28;20180;-87
2022/02/02 16:45:44;;;;;;;5.43;2.83;;;7.40;99.90;;;;;;4996352;28;20224;-87
2022/02/02 16:48:10;;;;;;;4.30;2.55;;;7.40;99.90;;;;;;5008272;28;20188;-87
2022/02/02 16:50:42;;;;;;;6.68;2.65;;;7.40;99.90;;;;;;5020075;28;20231;-88
2022/02/02 16:53:34;;;;;;;3.85;3.13;;;7.40;99.90;;;;;;4997511;28;20640;-88
2022/02/02 17:29:16;;;;;;;5.63;4.20;;;7.30;99.90;;;;;;5018204;28;20211;-88
2022/02/02 17:31:10;;;;;;;8.00;4.95;;;7.30;99.90;;;;;;4988441;28;20208;-88
2022/02/02 17:33:42;;;;;;;5.82;3.30;;;7.30;99.90;;;;;;4989720;28;20234;-88
2022/02/02 17:36:22;;;;;;;4.50;3.50;;;7.30;99.90;;;;;;4995695;28;20208;-88
2022/02/02 17:38:55;;;;;;;3.35;2.55;;;7.30;99.90;;;;;;4995176;28;20199;-88
2022/02/02 17:44:17;;;;;;;2.92;2.50;;;7.20;99.90;;;;;;4996805;28;20176;-89
2022/02/02 18:18:58;;;;;;;5.80;3.17;;;6.90;99.90;;;;;;4996338;28;20203;-88
2022/02/02 18:21:25;;;;;;;9.32;3.72;;;6.90;99.90;;;;;;4991623;28;20200;-89
2022/02/02 18:26:59;;;;;;;7.40;4.07;;;6.80;99.90;;;;;;4978001;28;20204;-89
2022/02/02 18:29:38;;;;;;;7.88;3.65;;;6.70;99.90;;;;;;4984938;28;20196;-88
2022/02/02 18:32:15;;;;;;;6.93;4.28;;;6.70;99.90;;;;;;4991663;28;20198;-88
2022/02/02 18:34:51;;;;;;;9.98;3.85;;;6.70;99.90;;;;;;4976596;28;20212;-88
2022/02/02 18:58:47;;;;;;;4.97;4.17;;;6.40;99.90;;;;;;4997453;28;20192;-89
2022/02/02 19:04:13;;;;;;;10.18;3.33;;;6.30;99.90;;;;;;4994965;28;20199;-88
2022/02/02 19:55:59;;;;;;;4.40;3.17;;;5.70;99.90;;;;;;4994284;28;20663;-89
2022/02/02 20:06:59;;;;;;;4.40;3.05;;;5.70;99.90;;;;;;4998664;28;20262;-89
2022/02/02 20:09:49;;;;;;;7.13;2.45;;;5.70;99.90;;;;;;4997075;28;20243;-88
2022/02/02 20:12:13;;;;;;;7.78;3.47;;;5.70;99.90;;;;;;4998246;28;20180;-88
2022/02/02 20:14:40;;;;;;;4.70;2.63;;;5.70;99.90;;;;;;4998415;28;20270;-89
2022/02/02 20:17:10;;;;;;;3.40;2.75;;;5.70;99.90;;;;;;4996939;28;20176;-88
2022/02/02 20:19:38;;;;;;;4.05;2.85;;;5.70;99.90;;;;;;4998440;28;20306;-88
2022/02/02 20:22:05;;;;;;;3.58;2.58;;;5.70;99.90;;;;;;4998062;28;20172;-88
2022/02/02 20:24:38;;;;;;;3.15;2.50;;;5.70;99.90;;;;;;4997895;28;20259;-88
2022/02/02 20:27:07;;;;;;;5.35;2.72;;;5.70;99.90;;;;;;4998193;28;20160;-88
2022/02/02 20:29:32;;;;;;;10.70;2.55;;;5.70;99.90;;;;;;4997034;28;20703;-89
2022/02/02 20:31:58;;;;;;;5.13;3.03;;;5.70;99.90;;;;;;4997015;28;20188;-87
2022/02/02 20:34:24;;;;;;;5.67;2.70;;;5.70;99.90;;;;;;4996892;28;20238;-89
2022/02/02 20:36:49;;;;;;;5.03;2.80;;;5.70;99.90;;;;;;4996855;28;20189;-89
2022/02/02 20:39:35;;;;;;;5.00;3.17;;;5.70;99.90;;;;;;4996619;28;20637;-88
2022/02/02 20:42:04;;;;;;;8.50;3.53;;;5.70;99.90;;;;;;4997926;28;20160;-88
2022/02/02 21:06:58;;;;;;;5.55;3.45;;;5.60;99.90;;;;;;4937706;29;20773;-88
2022/02/02 21:09:51;;;;;;;7.63;3.22;;;5.60;99.90;;;;;;4937167;29;20238;-88
2022/02/02 21:15:10;;;;;;;5.45;3.17;;;5.50;99.90;;;;;;4997157;28;20214;-88
2022/02/02 21:17:38;;;;;;;6.82;3.55;;;5.50;99.90;;;;;;4995924;28;20190;-88
2022/02/02 21:20:14;;;;;;;8.25;3.72;;;5.50;99.90;;;;;;4996015;28;20211;-88
2022/02/02 21:22:52;;;;;;;6.57;4.18;;;5.50;99.90;;;;;;4997024;28;20171;-88
2022/02/02 21:27:57;;;;;;;8.82;4.68;;;5.50;99.90;;;;;;5000195;28;20167;-89
2022/02/02 21:30:23;;;;;;;6.47;3.78;;;5.50;99.90;;;;;;4997432;28;20227;-89
2022/02/02 21:32:50;;;;;;;7.45;4.05;;;5.50;99.90;;;;;;4995622;28;20697;-88
2022/02/02 21:35:17;;;;;;;5.28;3.25;;;5.50;99.90;;;;;;4995690;28;20230;-88
2022/02/02 21:37:49;;;;;;;4.55;2.97;;;5.50;99.90;;;;;;4995823;28;20188;-88
2022/02/02 21:40:19;;;;;;;6.60;3.05;;;5.50;99.90;;;;;;4996580;28;20561;-89
2022/02/02 21:42:45;;;;;;;4.78;2.40;;;5.50;99.90;;;;;;4996556;28;20190;-89
2022/02/02 21:45:11;;;;;;;4.50;2.60;;;5.60;99.90;;;;;;4998183;28;20199;-89
2022/02/02 21:47:37;;;;;;;5.13;2.87;;;5.60;99.90;;;;;;5012660;28;20203;-88
2022/02/02 21:50:09;;;;;;;5.20;2.60;;;5.60;99.90;;;;;;4995939;28;20203;-89
2022/02/02 21:52:35;;;;;;;5.10;2.40;;;5.60;99.90;;;;;;4995548;28;20199;-89
2022/02/02 21:55:02;;;;;;;4.80;2.50;;;5.60;99.90;;;;;;4995266;28;20246;-88
2022/02/02 21:57:28;;;;;;;3.50;2.63;;;5.60;99.90;;;;;;4995278;28;20184;-87
2022/02/02 21:59:53;;;;;;;5.87;3.00;;;5.60;99.90;;;;;;4994901;28;20297;-88
2022/02/02 22:02:19;;;;;;;4.80;2.67;;;5.60;99.90;;;;;;4995001;28;20184;-88
2022/02/02 22:04:45;;;;;;;3.60;2.50;;;5.60;99.90;;;;;;4996372;28;20423;-88
2022/02/02 22:07:11;;;;;;;4.77;2.73;;;5.60;99.90;;;;;;4995021;28;20560;-88
2022/02/02 22:09:36;;;;;;;8.27;2.80;;;5.60;99.90;;;;;;4994507;28;20242;-88
2022/02/02 22:12:03;;;;;;;4.60;2.90;;;5.60;99.90;;;;;;4994869;28;20426;-89
2022/02/02 22:14:28;;;;;;;3.10;2.80;;;5.60;99.90;;;;;;4994777;28;20226;-88
2022/02/02 22:16:57;;;;;;;4.53;2.90;;;5.60;99.90;;;;;;4995846;28;20175;-88
2022/02/02 22:19:22;;;;;;;7.68;2.80;;;5.60;99.90;;;;;;4994305;28;21022;-88
2022/02/02 22:21:48;;;;;;;5.70;2.67;;;5.60;99.90;;;;;;4994649;28;20175;-88
2022/02/02 22:24:16;;;;;;;5.97;2.97;;;5.60;99.90;;;;;;4994690;28;20191;-88
2022/02/02 22:26:42;;;;;;;6.03;2.42;;;5.60;99.90;;;;;;4993521;28;20184;-88
2022/02/02 22:29:07;;;;;;;3.80;2.63;;;5.60;99.90;;;;;;4997101;28;20212;-88
2022/02/02 22:31:33;;;;;;;2.73;2.40;;;5.60;99.90;;;;;;4996039;28;20198;-88
2022/02/02 22:33:59;;;;;;;3.17;2.43;;;5.60;99.90;;;;;;4994627;28;20227;-88
2022/02/02 22:36:25;;;;;;;4.77;2.50;;;5.60;99.90;;;;;;4994618;28;20940;-89
2022/02/02 22:38:50;;;;;;;3.50;2.50;;;5.60;99.90;;;;;;4995950;28;20179;-89
2022/02/02 22:41:16;;;;;;;6.37;2.63;;;5.60;99.90;;;;;;4994843;28;20204;-88
2022/02/02 22:43:48;;;;;;;3.53;2.53;;;5.60;99.90;;;;;;4994518;28;20483;-89
2022/02/02 22:46:15;;;;;;;6.63;2.70;;;5.60;99.90;;;;;;5010085;28;20449;-88
2022/02/02 22:48:43;;;;;;;3.55;2.45;;;5.60;99.90;;;;;;5003869;28;20195;-88
2022/02/02 22:51:09;;;;;;;5.50;2.60;;;5.60;99.90;;;;;;5006912;28;20183;-88
2022/02/02 22:53:36;;;;;;;3.83;2.50;;;5.60;99.90;;;;;;5013213;28;20211;-88
2022/02/02 22:56:01;;;;;;;5.90;2.75;;;5.60;99.90;;;;;;4999354;28;20199;-89
2022/02/02 22:58:27;;;;;;;12.20;2.90;;;5.60;99.90;;;;;;5003895;28;20187;-88
2022/02/02 23:00:53;;;;;;;5.20;2.57;;;5.60;99.90;;;;;;4999603;28;20970;-89
2022/02/02 23:03:22;;;;;;;5.23;3.10;;;5.50;99.90;;;;;;5002794;28;20655;-88
2022/02/02 23:05:53;;;;;;;6.30;2.78;;;5.50;99.90;;;;;;5002492;28;20424;-88
2022/02/02 23:08:21;;;;;;;3.97;2.20;;;5.50;99.90;;;;;;4993655;28;20192;-87
2022/02/02 23:10:46;;;;;;;5.93;2.28;;;5.50;99.90;;;;;;4994004;28;20199;-88
2022/02/02 23:13:14;;;;;;;4.47;2.03;;;5.50;99.90;;;;;;4993664;28;20669;-89
2022/02/02 23:15:52;;;;;;;5.35;2.05;;;5.50;99.90;;;;;;4994950;28;20195;-88
2022/02/02 23:18:20;;;;;;;4.88;2.35;;;5.50;99.90;;;;;;4993968;28;20195;-88
2022/02/02 23:20:51;;;;;;;5.72;2.65;;;5.50;99.90;;;;;;4994913;28;20188;-88
2022/02/02 23:23:23;;;;;;;6.43;2.20;;;5.50;99.90;;;;;;4993839;28;20246;-88
2022/02/02 23:25:50;;;;;;;7.05;2.35;;;5.40;99.90;;;;;;4993621;28;20649;-89
2022/02/02 23:28:26;;;;;;;7.28;2.80;;;5.40;99.90;;;;;;4993423;28;20184;-88
2022/02/02 23:30:53;;;;;;;5.53;2.90;;;5.40;99.90;;;;;;4993390;28;20195;-88
2022/02/02 23:33:19;;;;;;;5.63;2.60;;;5.40;99.90;;;;;;4995976;28;20219;-88
2022/02/02 23:35:45;;;;;;;4.00;2.10;;;5.40;99.90;;;;;;4994613;28;20286;-88
2022/02/02 23:38:12;;;;;;;4.15;2.45;;;5.30;99.90;;;;;;5000516;28;20247;-88
2022/02/02 23:43:25;;;;;;;4.65;3.47;;;5.30;99.90;;;;;;5001565;28;20230;-88